METAR Formatted Surface Weather Observation
Issued by NWS

Home | Current Version | Previous Version | Text Only | Print | Product List | Glossary On
Versions: 1 2 3 4 5 6 7 8 9 10 11 12 13 14 15 16 17 18 19 20 21 22 23 24 25 26 27 28 29 30 31 32 33 34 35 36
000
SAUS46 KMTR 260253
MTRBAN
METAR KBAN 260252Z AUTO 00000KT FEW030 SCT039 SCT050 05/02 A3011 RMK
AO2 SLP159 60006 T00500017 53001 $



USA.gov is the U.S. government's official web portal to all federal, state and local government web resources and services.